sensor_id;sensor_type;location;lat;lon;timestamp;temperature;humidity
41922;DHT22;27609;51.002;5.354;2022-10-18T00:01:56;16.30;99.90
41922;DHT22;27609;51.002;5.354;2022-10-18T00:04:21;16.30;99.90
41922;DHT22;27609;51.002;5.354;2022-10-18T00:06:47;16.30;99.90
41922;DHT22;27609;51.002;5.354;2022-10-18T00:09:13;16.40;99.90
41922;DHT22;27609;51.002;5.354;2022-10-18T00:11:39;16.40;99.90
41922;DHT22;27609;51.002;5.354;2022-10-18T00:14:05;16.20;99.90
41922;DHT22;27609;51.002;5.354;2022-10-18T00:16:30;15.90;99.90
41922;DHT22;27609;51.002;5.354;2022-10-18T00:18:56;15.90;99.90
41922;DHT22;27609;51.002;5.354;2022-10-18T00:21:23;15.70;99.90
41922;DHT22;27609;51.002;5.354;2022-10-18T00:23:50;15.70;99.90
41922;DHT22;27609;51.002;5.354;2022-10-18T00:26:24;15.60;99.90
41922;DHT22;27609;51.002;5.354;2022-10-18T00:28:56;15.80;99.90
41922;DHT22;27609;51.002;5.354;2022-10-18T00:31:27;16.00;99.90
41922;DHT22;27609;51.002;5.354;2022-10-18T00:33:56;16.10;99.90
41922;DHT22;27609;51.002;5.354;2022-10-18T00:36:23;16.20;99.90
41922;DHT22;27609;51.002;5.354;2022-10-18T00:38:50;16.20;99.90
41922;DHT22;27609;51.002;5.354;2022-10-18T00:41:18;16.20;99.90
41922;DHT22;27609;51.002;5.354;2022-10-18T00:44:01;16.20;99.90
41922;DHT22;27609;51.002;5.354;2022-10-18T00:46:47;16.20;99.90
41922;DHT22;27609;51.002;5.354;2022-10-18T00:49:17;16.30;99.90
41922;DHT22;27609;51.002;5.354;2022-10-18T00:54:31;15.90;99.90
41922;DHT22;27609;51.002;5.354;2022-10-18T00:56:58;15.80;99.90
41922;DHT22;27609;51.002;5.354;2022-10-18T00:59:24;15.90;99.90
41922;DHT22;27609;51.002;5.354;2022-10-18T01:01:50;16.10;99.90
41922;DHT22;27609;51.002;5.354;2022-10-18T01:04:17;16.10;99.90
41922;DHT22;27609;51.002;5.354;2022-10-18T01:07:05;16.30;99.90
41922;DHT22;27609;51.002;5.354;2022-10-18T01:09:46;16.20;99.90
41922;DHT22;27609;51.002;5.354;2022-10-18T01:15:21;15.90;99.90
41922;DHT22;27609;51.002;5.354;2022-10-18T01:27:00;16.10;99.90
41922;DHT22;27609;51.002;5.354;2022-10-18T01:32:03;16.20;99.90
41922;DHT22;27609;51.002;5.354;2022-10-18T01:34:34;16.30;99.90
41922;DHT22;27609;51.002;5.354;2022-10-18T01:37:02;16.40;99.90
41922;DHT22;27609;51.002;5.354;2022-10-18T01:39:33;16.40;99.90
41922;DHT22;27609;51.002;5.354;2022-10-18T01:42:01;16.40;99.90
41922;DHT22;27609;51.002;5.354;2022-10-18T01:44:30;16.40;99.90
41922;DHT22;27609;51.002;5.354;2022-10-18T01:46:58;16.50;99.90
41922;DHT22;27609;51.002;5.354;2022-10-18T01:49:25;16.50;99.90
41922;DHT22;27609;51.002;5.354;2022-10-18T01:51:51;16.50;99.90
41922;DHT22;27609;51.002;5.354;2022-10-18T01:54:22;16.50;99.90
41922;DHT22;27609;51.002;5.354;2022-10-18T01:57:02;16.10;99.90
41922;DHT22;27609;51.002;5.354;2022-10-18T02:12:41;16.20;99.90
41922;DHT22;27609;51.002;5.354;2022-10-18T02:15:09;16.40;99.90
41922;DHT22;27609;51.002;5.354;2022-10-18T02:17:37;16.40;99.90
41922;DHT22;27609;51.002;5.354;2022-10-18T02:20:06;16.40;99.90
41922;DHT22;27609;51.002;5.354;2022-10-18T02:22:34;16.40;99.90
41922;DHT22;27609;51.002;5.354;2022-10-18T02:25:05;16.40;99.90
41922;DHT22;27609;51.002;5.354;2022-10-18T02:27:35;16.50;99.90
41922;DHT22;27609;51.002;5.354;2022-10-18T02:30:01;16.50;99.90
41922;DHT22;27609;51.002;5.354;2022-10-18T02:32:40;16.40;99.90
41922;DHT22;27609;51.002;5.354;2022-10-18T02:35:31;16.40;99.90
41922;DHT22;27609;51.002;5.354;2022-10-18T02:37:59;16.50;99.90
41922;DHT22;27609;51.002;5.354;2022-10-18T02:40:25;16.50;99.90
41922;DHT22;27609;51.002;5.354;2022-10-18T02:42:56;16.50;99.90
41922;DHT22;27609;51.002;5.354;2022-10-18T02:45:22;16.60;99.90
41922;DHT22;27609;51.002;5.354;2022-10-18T02:47:49;16.50;99.90
41922;DHT22;27609;51.002;5.354;2022-10-18T02:50:15;16.60;99.90
41922;DHT22;27609;51.002;5.354;2022-10-18T02:52:40;16.60;99.90
41922;DHT22;27609;51.002;5.354;2022-10-18T02:55:07;16.60;99.90
41922;DHT22;27609;51.002;5.354;2022-10-18T02:57:33;16.60;99.90
41922;DHT22;27609;51.002;5.354;2022-10-18T02:59:59;16.60;99.90
41922;DHT22;27609;51.002;5.354;2022-10-18T03:02:25;16.50;99.90
41922;DHT22;27609;51.002;5.354;2022-10-18T03:04:50;16.60;99.90
41922;DHT22;27609;51.002;5.354;2022-10-18T03:07:16;16.60;99.90
41922;DHT22;27609;51.002;5.354;2022-10-18T03:09:42;16.60;99.90
41922;DHT22;27609;51.002;5.354;2022-10-18T03:12:07;16.60;99.90
41922;DHT22;27609;51.002;5.354;2022-10-18T03:14:33;16.60;99.90
41922;DHT22;27609;51.002;5.354;2022-10-18T03:16:59;16.60;99.90
41922;DHT22;27609;51.002;5.354;2022-10-18T03:19:24;16.60;99.90
41922;DHT22;27609;51.002;5.354;2022-10-18T03:21:50;16.60;99.90
41922;DHT22;27609;51.002;5.354;2022-10-18T03:24:16;16.70;99.90
41922;DHT22;27609;51.002;5.354;2022-10-18T03:26:41;16.60;99.90
41922;DHT22;27609;51.002;5.354;2022-10-18T03:29:09;16.60;99.90
41922;DHT22;27609;51.002;5.354;2022-10-18T03:31:34;16.60;99.90
41922;DHT22;27609;51.002;5.354;2022-10-18T03:34:00;16.60;99.90
41922;DHT22;27609;51.002;5.354;2022-10-18T03:36:26;16.60;99.90
41922;DHT22;27609;51.002;5.354;2022-10-18T03:38:51;16.70;99.90
41922;DHT22;27609;51.002;5.354;2022-10-18T03:41:17;16.60;99.90
41922;DHT22;27609;51.002;5.354;2022-10-18T03:43:45;16.70;99.90
41922;DHT22;27609;51.002;5.354;2022-10-18T03:46:11;16.70;99.90
41922;DHT22;27609;51.002;5.354;2022-10-18T03:48:37;16.70;99.90
41922;DHT22;27609;51.002;5.354;2022-10-18T03:51:03;16.70;99.90
41922;DHT22;27609;51.002;5.354;2022-10-18T03:53:29;16.80;99.90
41922;DHT22;27609;51.002;5.354;2022-10-18T03:55:55;16.70;99.90
41922;DHT22;27609;51.002;5.354;2022-10-18T03:58:21;16.70;99.90
41922;DHT22;27609;51.002;5.354;2022-10-18T04:00:51;16.70;99.90
41922;DHT22;27609;51.002;5.354;2022-10-18T04:03:18;16.80;99.90
41922;DHT22;27609;51.002;5.354;2022-10-18T04:05:45;16.80;99.90
41922;DHT22;27609;51.002;5.354;2022-10-18T04:08:11;16.70;99.90
41922;DHT22;27609;51.002;5.354;2022-10-18T04:10:37;16.70;99.90
41922;DHT22;27609;51.002;5.354;2022-10-18T04:13:04;16.70;99.90
41922;DHT22;27609;51.002;5.354;2022-10-18T04:15:30;16.70;99.90
41922;DHT22;27609;51.002;5.354;2022-10-18T04:17:55;16.70;99.90
41922;DHT22;27609;51.002;5.354;2022-10-18T04:20:22;16.70;99.90
41922;DHT22;27609;51.002;5.354;2022-10-18T04:22:48;16.70;99.90
41922;DHT22;27609;51.002;5.354;2022-10-18T04:25:15;16.70;99.90
41922;DHT22;27609;51.002;5.354;2022-10-18T04:27:41;16.40;99.90
41922;DHT22;27609;51.002;5.354;2022-10-18T04:30:07;16.10;99.90
41922;DHT22;27609;51.002;5.354;2022-10-18T04:32:32;16.20;99.90
41922;DHT22;27609;51.002;5.354;2022-10-18T04:35:00;16.10;99.90
41922;DHT22;27609;51.002;5.354;2022-10-18T04:37:26;15.80;99.90
41922;DHT22;27609;51.002;5.354;2022-10-18T04:39:51;16.00;99.90
41922;DHT22;27609;51.002;5.354;2022-10-18T04:42:17;16.10;99.90
41922;DHT22;27609;51.002;5.354;2022-10-18T04:44:43;16.30;99.90
41922;DHT22;27609;51.002;5.354;2022-10-18T04:47:08;16.40;99.90
41922;DHT22;27609;51.002;5.354;2022-10-18T04:49:34;16.50;99.90
41922;DHT22;27609;51.002;5.354;2022-10-18T04:52:00;16.50;99.90
41922;DHT22;27609;51.002;5.354;2022-10-18T04:54:25;16.50;99.90
41922;DHT22;27609;51.002;5.354;2022-10-18T04:56:52;16.50;99.90
41922;DHT22;27609;51.002;5.354;2022-10-18T04:59:18;16.50;99.90
41922;DHT22;27609;51.002;5.354;2022-10-18T05:01:43;16.50;99.90
41922;DHT22;27609;51.002;5.354;2022-10-18T05:04:09;16.50;99.90
41922;DHT22;27609;51.002;5.354;2022-10-18T05:06:35;16.50;99.90
41922;DHT22;27609;51.002;5.354;2022-10-18T05:09:00;16.50;99.90
41922;DHT22;27609;51.002;5.354;2022-10-18T05:11:26;16.50;99.90
41922;DHT22;27609;51.002;5.354;2022-10-18T05:13:52;16.50;99.90
41922;DHT22;27609;51.002;5.354;2022-10-18T05:16:18;16.50;99.90
41922;DHT22;27609;51.002;5.354;2022-10-18T05:18:44;16.50;99.90
41922;DHT22;27609;51.002;5.354;2022-10-18T05:21:09;16.20;99.90
41922;DHT22;27609;51.002;5.354;2022-10-18T05:23:36;16.10;99.90
41922;DHT22;27609;51.002;5.354;2022-10-18T05:26:04;16.20;99.90
41922;DHT22;27609;51.002;5.354;2022-10-18T05:28:31;16.20;99.90
41922;DHT22;27609;51.002;5.354;2022-10-18T05:31:04;16.30;99.90
41922;DHT22;27609;51.002;5.354;2022-10-18T05:33:30;16.30;99.90
41922;DHT22;27609;51.002;5.354;2022-10-18T05:35:56;16.30;99.90
41922;DHT22;27609;51.002;5.354;2022-10-18T05:38:22;16.30;99.90
41922;DHT22;27609;51.002;5.354;2022-10-18T05:40:48;16.40;99.90
41922;DHT22;27609;51.002;5.354;2022-10-18T05:43:14;16.40;99.90
41922;DHT22;27609;51.002;5.354;2022-10-18T05:45:45;16.30;99.90
41922;DHT22;27609;51.002;5.354;2022-10-18T05:48:11;16.30;99.90
41922;DHT22;27609;51.002;5.354;2022-10-18T05:50:37;16.00;99.90
41922;DHT22;27609;51.002;5.354;2022-10-18T05:53:02;15.90;99.90
41922;DHT22;27609;51.002;5.354;2022-10-18T05:55:28;15.80;99.90
41922;DHT22;27609;51.002;5.354;2022-10-18T05:57:53;15.70;99.90
41922;DHT22;27609;51.002;5.354;2022-10-18T06:00:19;15.70;99.90
41922;DHT22;27609;51.002;5.354;2022-10-18T06:02:45;15.80;99.90
41922;DHT22;27609;51.002;5.354;2022-10-18T06:05:11;15.80;99.90
41922;DHT22;27609;51.002;5.354;2022-10-18T06:07:36;15.80;99.90
41922;DHT22;27609;51.002;5.354;2022-10-18T06:10:02;15.90;99.90
41922;DHT22;27609;51.002;5.354;2022-10-18T06:12:28;15.80;99.90
41922;DHT22;27609;51.002;5.354;2022-10-18T06:14:53;15.90;99.90
41922;DHT22;27609;51.002;5.354;2022-10-18T06:17:19;15.90;99.90
41922;DHT22;27609;51.002;5.354;2022-10-18T06:19:45;15.90;99.90
41922;DHT22;27609;51.002;5.354;2022-10-18T06:22:11;15.90;99.90
41922;DHT22;27609;51.002;5.354;2022-10-18T06:24:37;15.90;99.90
41922;DHT22;27609;51.002;5.354;2022-10-18T06:27:03;15.90;99.90
41922;DHT22;27609;51.002;5.354;2022-10-18T06:29:36;15.90;99.90
41922;DHT22;27609;51.002;5.354;2022-10-18T06:32:03;15.80;99.90
41922;DHT22;27609;51.002;5.354;2022-10-18T06:34:29;15.90;99.90
41922;DHT22;27609;51.002;5.354;2022-10-18T06:36:54;15.80;99.90
41922;DHT22;27609;51.002;5.354;2022-10-18T06:39:20;15.80;99.90
41922;DHT22;27609;51.002;5.354;2022-10-18T06:41:46;15.80;99.90
41922;DHT22;27609;51.002;5.354;2022-10-18T06:44:12;15.90;99.90
41922;DHT22;27609;51.002;5.354;2022-10-18T06:46:43;15.80;99.90
41922;DHT22;27609;51.002;5.354;2022-10-18T06:49:09;15.50;99.90
41922;DHT22;27609;51.002;5.354;2022-10-18T06:51:35;15.70;99.90
41922;DHT22;27609;51.002;5.354;2022-10-18T06:54:01;15.90;99.90
41922;DHT22;27609;51.002;5.354;2022-10-18T06:56:27;15.90;99.90
41922;DHT22;27609;51.002;5.354;2022-10-18T06:58:53;16.00;99.90
41922;DHT22;27609;51.002;5.354;2022-10-18T07:01:19;16.20;99.90
41922;DHT22;27609;51.002;5.354;2022-10-18T07:03:46;16.40;99.90
41922;DHT22;27609;51.002;5.354;2022-10-18T07:06:13;16.60;99.90
41922;DHT22;27609;51.002;5.354;2022-10-18T07:08:39;16.70;99.90
41922;DHT22;27609;51.002;5.354;2022-10-18T07:11:16;17.00;99.90
41922;DHT22;27609;51.002;5.354;2022-10-18T07:13:42;17.00;99.90
41922;DHT22;27609;51.002;5.354;2022-10-18T07:16:08;17.20;99.90
41922;DHT22;27609;51.002;5.354;2022-10-18T07:18:36;17.10;99.90
41922;DHT22;27609;51.002;5.354;2022-10-18T07:21:24;17.30;99.90
41922;DHT22;27609;51.002;5.354;2022-10-18T07:23:51;17.20;99.90
41922;DHT22;27609;51.002;5.354;2022-10-18T07:26:37;17.20;99.90
41922;DHT22;27609;51.002;5.354;2022-10-18T07:29:08;17.20;99.90
41922;DHT22;27609;51.002;5.354;2022-10-18T07:31:35;17.30;99.90
41922;DHT22;27609;51.002;5.354;2022-10-18T07:34:03;17.20;99.90
41922;DHT22;27609;51.002;5.354;2022-10-18T07:36:29;17.00;99.90
41922;DHT22;27609;51.002;5.354;2022-10-18T07:38:55;17.20;99.90
41922;DHT22;27609;51.002;5.354;2022-10-18T07:41:21;17.40;99.90
41922;DHT22;27609;51.002;5.354;2022-10-18T07:43:49;17.60;99.90
41922;DHT22;27609;51.002;5.354;2022-10-18T07:46:28;17.90;99.90
41922;DHT22;27609;51.002;5.354;2022-10-18T07:49:03;18.20;99.90
41922;DHT22;27609;51.002;5.354;2022-10-18T07:51:30;18.30;99.90
41922;DHT22;27609;51.002;5.354;2022-10-18T07:53:58;18.10;99.90
41922;DHT22;27609;51.002;5.354;2022-10-18T07:56:24;18.10;99.90
41922;DHT22;27609;51.002;5.354;2022-10-18T07:58:54;18.30;99.90
41922;DHT22;27609;51.002;5.354;2022-10-18T08:01:22;18.70;99.90
41922;DHT22;27609;51.002;5.354;2022-10-18T08:03:48;18.70;99.90
41922;DHT22;27609;51.002;5.354;2022-10-18T08:06:16;18.90;99.90
41922;DHT22;27609;51.002;5.354;2022-10-18T08:08:43;18.70;99.90
41922;DHT22;27609;51.002;5.354;2022-10-18T08:11:17;17.90;99.90
41922;DHT22;27609;51.002;5.354;2022-10-18T08:13:43;17.50;99.90
41922;DHT22;27609;51.002;5.354;2022-10-18T08:16:18;17.70;99.90
41922;DHT22;27609;51.002;5.354;2022-10-18T08:18:43;18.00;99.90
41922;DHT22;27609;51.002;5.354;2022-10-18T08:21:12;18.40;99.90
41922;DHT22;27609;51.002;5.354;2022-10-18T08:23:38;19.20;99.90
41922;DHT22;27609;51.002;5.354;2022-10-18T08:26:09;19.60;99.90
41922;DHT22;27609;51.002;5.354;2022-10-18T08:28:36;20.00;99.90
41922;DHT22;27609;51.002;5.354;2022-10-18T08:31:17;20.00;99.90
41922;DHT22;27609;51.002;5.354;2022-10-18T08:33:43;20.10;99.90
41922;DHT22;27609;51.002;5.354;2022-10-18T08:36:11;20.40;99.90
41922;DHT22;27609;51.002;5.354;2022-10-18T08:38:39;20.30;99.90
41922;DHT22;27609;51.002;5.354;2022-10-18T08:44:22;20.10;99.90
41922;DHT22;27609;51.002;5.354;2022-10-18T08:46:51;20.10;99.90
41922;DHT22;27609;51.002;5.354;2022-10-18T08:49:24;19.80;99.90
41922;DHT22;27609;51.002;5.354;2022-10-18T08:51:53;19.70;99.90
41922;DHT22;27609;51.002;5.354;2022-10-18T08:54:38;19.70;99.90
41922;DHT22;27609;51.002;5.354;2022-10-18T08:57:15;19.70;99.90
41922;DHT22;27609;51.002;5.354;2022-10-18T08:59:42;19.40;99.90
41922;DHT22;27609;51.002;5.354;2022-10-18T09:04:50;19.40;99.90
41922;DHT22;27609;51.002;5.354;2022-10-18T09:07:23;19.40;99.90
41922;DHT22;27609;51.002;5.354;2022-10-18T09:10:18;19.90;99.90
41922;DHT22;27609;51.002;5.354;2022-10-18T09:20:25;20.90;99.90
41922;DHT22;27609;51.002;5.354;2022-10-18T09:23:01;20.90;99.90
41922;DHT22;27609;51.002;5.354;2022-10-18T09:25:45;21.00;99.90
41922;DHT22;27609;51.002;5.354;2022-10-18T09:33:33;20.80;99.90
41922;DHT22;27609;51.002;5.354;2022-10-18T09:36:06;20.80;99.90
41922;DHT22;27609;51.002;5.354;2022-10-18T09:38:44;20.60;99.90
41922;DHT22;27609;51.002;5.354;2022-10-18T09:41:31;20.70;99.90
41922;DHT22;27609;51.002;5.354;2022-10-18T09:44:21;21.10;99.90
41922;DHT22;27609;51.002;5.354;2022-10-18T09:46:59;21.60;99.90
41922;DHT22;27609;51.002;5.354;2022-10-18T09:49:32;21.60;99.90
41922;DHT22;27609;51.002;5.354;2022-10-18T09:52:05;20.60;99.90
41922;DHT22;27609;51.002;5.354;2022-10-18T09:54:41;20.80;99.90
41922;DHT22;27609;51.002;5.354;2022-10-18T09:57:41;21.00;99.90
41922;DHT22;27609;51.002;5.354;2022-10-18T10:00:00;21.40;99.90
41922;DHT22;27609;51.002;5.354;2022-10-18T10:02:28;22.50;99.90
41922;DHT22;27609;51.002;5.354;2022-10-18T10:04:53;22.20;99.90
41922;DHT22;27609;51.002;5.354;2022-10-18T10:07:22;22.10;99.90
41922;DHT22;27609;51.002;5.354;2022-10-18T10:12:37;24.20;99.90
41922;DHT22;27609;51.002;5.354;2022-10-18T10:15:22;25.00;99.90
41922;DHT22;27609;51.002;5.354;2022-10-18T10:18:15;25.90;99.90
41922;DHT22;27609;51.002;5.354;2022-10-18T10:20:44;26.30;99.90
41922;DHT22;27609;51.002;5.354;2022-10-18T10:23:21;26.50;99.90
41922;DHT22;27609;51.002;5.354;2022-10-18T10:25:55;27.40;99.90
41922;DHT22;27609;51.002;5.354;2022-10-18T10:28:35;27.30;99.90
41922;DHT22;27609;51.002;5.354;2022-10-18T10:34:05;32.70;96.30
41922;DHT22;27609;51.002;5.354;2022-10-18T10:36:32;35.30;94.40
41922;DHT22;27609;51.002;5.354;2022-10-18T10:39:06;35.40;85.20
41922;DHT22;27609;51.002;5.354;2022-10-18T10:41:32;32.40;92.10
41922;DHT22;27609;51.002;5.354;2022-10-18T10:44:01;31.00;96.40
41922;DHT22;27609;51.002;5.354;2022-10-18T10:46:34;29.60;99.90
41922;DHT22;27609;51.002;5.354;2022-10-18T10:49:00;28.60;99.90
41922;DHT22;27609;51.002;5.354;2022-10-18T10:51:38;28.30;99.90
41922;DHT22;27609;51.002;5.354;2022-10-18T10:57:04;30.20;95.60
41922;DHT22;27609;51.002;5.354;2022-10-18T10:59:46;29.00;97.20
41922;DHT22;27609;51.002;5.354;2022-10-18T11:04:42;26.30;99.90
41922;DHT22;27609;51.002;5.354;2022-10-18T11:12:31;27.30;99.90
41922;DHT22;27609;51.002;5.354;2022-10-18T11:15:13;28.60;99.90
41922;DHT22;27609;51.002;5.354;2022-10-18T11:20:39;33.00;90.10
41922;DHT22;27609;51.002;5.354;2022-10-18T11:28:47;29.10;97.40
41922;DHT22;27609;51.002;5.354;2022-10-18T11:42:55;27.80;99.90
41922;DHT22;27609;51.002;5.354;2022-10-18T11:48:47;30.90;93.00
41922;DHT22;27609;51.002;5.354;2022-10-18T12:02:44;29.00;93.30
41922;DHT22;27609;51.002;5.354;2022-10-18T12:05:13;27.80;94.90
41922;DHT22;27609;51.002;5.354;2022-10-18T12:07:46;27.10;97.70
41922;DHT22;27609;51.002;5.354;2022-10-18T12:10:16;28.10;96.40
41922;DHT22;27609;51.002;5.354;2022-10-18T12:12:56;29.20;94.90
41922;DHT22;27609;51.002;5.354;2022-10-18T12:15:26;30.30;90.80
41922;DHT22;27609;51.002;5.354;2022-10-18T12:18:06;28.50;93.90
41922;DHT22;27609;51.002;5.354;2022-10-18T12:20:38;29.10;93.10
41922;DHT22;27609;51.002;5.354;2022-10-18T12:23:35;28.70;93.90
41922;DHT22;27609;51.002;5.354;2022-10-18T12:26:05;29.90;92.70
41922;DHT22;27609;51.002;5.354;2022-10-18T12:28:48;31.70;91.50
41922;DHT22;27609;51.002;5.354;2022-10-18T12:33:44;34.30;81.10
41922;DHT22;27609;51.002;5.354;2022-10-18T12:38:52;34.10;80.80
41922;DHT22;27609;51.002;5.354;2022-10-18T12:41:24;35.30;78.40
41922;DHT22;27609;51.002;5.354;2022-10-18T12:43:53;34.50;78.40
41922;DHT22;27609;51.002;5.354;2022-10-18T12:46:20;36.20;76.80
41922;DHT22;27609;51.002;5.354;2022-10-18T12:48:59;36.90;73.50
41922;DHT22;27609;51.002;5.354;2022-10-18T12:51:26;35.20;74.80
41922;DHT22;27609;51.002;5.354;2022-10-18T13:09:36;35.10;70.20
41922;DHT22;27609;51.002;5.354;2022-10-18T13:15:03;30.50;75.40
41922;DHT22;27609;51.002;5.354;2022-10-18T13:20:41;28.80;82.10
41922;DHT22;27609;51.002;5.354;2022-10-18T13:26:03;27.60;91.10
41922;DHT22;27609;51.002;5.354;2022-10-18T13:28:36;27.30;92.90
41922;DHT22;27609;51.002;5.354;2022-10-18T13:34:32;29.00;88.30
41922;DHT22;27609;51.002;5.354;2022-10-18T13:39:36;29.40;83.30
41922;DHT22;27609;51.002;5.354;2022-10-18T13:44:34;28.30;91.50
41922;DHT22;27609;51.002;5.354;2022-10-18T13:58:10;25.40;99.90
41922;DHT22;27609;51.002;5.354;2022-10-18T14:08:47;23.90;99.90
41922;DHT22;27609;51.002;5.354;2022-10-18T14:11:51;23.80;99.90
41922;DHT22;27609;51.002;5.354;2022-10-18T14:17:05;23.70;99.90
41922;DHT22;27609;51.002;5.354;2022-10-18T14:19:40;23.60;99.90
41922;DHT22;27609;51.002;5.354;2022-10-18T14:22:26;23.70;99.90
41922;DHT22;27609;51.002;5.354;2022-10-18T14:24:57;23.80;99.90
41922;DHT22;27609;51.002;5.354;2022-10-18T14:27:30;23.70;99.90
41922;DHT22;27609;51.002;5.354;2022-10-18T14:30:17;24.10;99.90
41922;DHT22;27609;51.002;5.354;2022-10-18T14:32:47;25.20;99.90
41922;DHT22;27609;51.002;5.354;2022-10-18T14:35:21;26.40;99.90
41922;DHT22;27609;51.002;5.354;2022-10-18T14:37:49;27.50;96.00
41922;DHT22;27609;51.002;5.354;2022-10-18T14:40:35;28.10;95.50
41922;DHT22;27609;51.002;5.354;2022-10-18T14:43:10;27.70;94.40
41922;DHT22;27609;51.002;5.354;2022-10-18T14:45:37;28.20;95.30
41922;DHT22;27609;51.002;5.354;2022-10-18T14:48:12;29.00;93.70
41922;DHT22;27609;51.002;5.354;2022-10-18T14:50:38;29.10;93.40
41922;DHT22;27609;51.002;5.354;2022-10-18T14:53:06;29.50;92.80
41922;DHT22;27609;51.002;5.354;2022-10-18T14:55:33;28.30;94.00
41922;DHT22;27609;51.002;5.354;2022-10-18T14:58:01;28.50;94.90
41922;DHT22;27609;51.002;5.354;2022-10-18T15:00:35;28.00;94.10
41922;DHT22;27609;51.002;5.354;2022-10-18T15:03:03;27.00;95.50
41922;DHT22;27609;51.002;5.354;2022-10-18T15:05:30;26.10;99.90
41922;DHT22;27609;51.002;5.354;2022-10-18T15:07:57;25.40;99.90
41922;DHT22;27609;51.002;5.354;2022-10-18T15:10:30;24.90;99.90
41922;DHT22;27609;51.002;5.354;2022-10-18T15:12:58;24.50;99.90
41922;DHT22;27609;51.002;5.354;2022-10-18T15:15:27;24.00;99.90
41922;DHT22;27609;51.002;5.354;2022-10-18T15:17:54;23.50;99.90
41922;DHT22;27609;51.002;5.354;2022-10-18T15:22:51;22.80;99.90
41922;DHT22;27609;51.002;5.354;2022-10-18T15:25:24;22.50;99.90
41922;DHT22;27609;51.002;5.354;2022-10-18T15:27:52;22.30;99.90
41922;DHT22;27609;51.002;5.354;2022-10-18T15:30:28;22.10;99.90
41922;DHT22;27609;51.002;5.354;2022-10-18T15:33:01;21.90;99.90
41922;DHT22;27609;51.002;5.354;2022-10-18T15:35:33;21.70;99.90
41922;DHT22;27609;51.002;5.354;2022-10-18T15:38:11;21.60;99.90
41922;DHT22;27609;51.002;5.354;2022-10-18T15:40:38;21.40;99.90
41922;DHT22;27609;51.002;5.354;2022-10-18T15:45:55;21.10;99.90
41922;DHT22;27609;51.002;5.354;2022-10-18T15:48:36;21.10;99.90
41922;DHT22;27609;51.002;5.354;2022-10-18T15:51:05;21.00;99.90
41922;DHT22;27609;51.002;5.354;2022-10-18T15:53:33;20.90;99.90
41922;DHT22;27609;51.002;5.354;2022-10-18T15:56:02;20.70;99.90
41922;DHT22;27609;51.002;5.354;2022-10-18T15:58:46;20.60;99.90
41922;DHT22;27609;51.002;5.354;2022-10-18T16:01:17;20.60;99.90
41922;DHT22;27609;51.002;5.354;2022-10-18T16:03:45;20.40;99.90
41922;DHT22;27609;51.002;5.354;2022-10-18T16:06:12;20.40;99.90
41922;DHT22;27609;51.002;5.354;2022-10-18T16:08:46;20.10;99.90
41922;DHT22;27609;51.002;5.354;2022-10-18T16:11:16;20.00;99.90
41922;DHT22;27609;51.002;5.354;2022-10-18T16:13:42;19.90;99.90
41922;DHT22;27609;51.002;5.354;2022-10-18T16:16:17;19.80;99.90
41922;DHT22;27609;51.002;5.354;2022-10-18T16:18:44;19.60;99.90
41922;DHT22;27609;51.002;5.354;2022-10-18T16:21:23;19.40;99.90
41922;DHT22;27609;51.002;5.354;2022-10-18T16:23:49;19.20;99.90
41922;DHT22;27609;51.002;5.354;2022-10-18T16:26:16;19.00;99.90
41922;DHT22;27609;51.002;5.354;2022-10-18T16:28:42;18.90;99.90
41922;DHT22;27609;51.002;5.354;2022-10-18T16:31:13;18.80;99.90
41922;DHT22;27609;51.002;5.354;2022-10-18T16:33:40;18.70;99.90
41922;DHT22;27609;51.002;5.354;2022-10-18T16:36:06;18.90;99.90
41922;DHT22;27609;51.002;5.354;2022-10-18T16:38:35;18.70;99.90
41922;DHT22;27609;51.002;5.354;2022-10-18T16:41:03;18.20;99.90
41922;DHT22;27609;51.002;5.354;2022-10-18T16:43:29;18.10;99.90
41922;DHT22;27609;51.002;5.354;2022-10-18T16:45:56;18.00;99.90
41922;DHT22;27609;51.002;5.354;2022-10-18T16:48:23;17.80;99.90
41922;DHT22;27609;51.002;5.354;2022-10-18T16:50:51;17.70;99.90
41922;DHT22;27609;51.002;5.354;2022-10-18T16:53:17;17.60;99.90
41922;DHT22;27609;51.002;5.354;2022-10-18T16:55:54;17.40;99.90
41922;DHT22;27609;51.002;5.354;2022-10-18T16:58:20;17.40;99.90
41922;DHT22;27609;51.002;5.354;2022-10-18T17:00:47;17.20;99.90
41922;DHT22;27609;51.002;5.354;2022-10-18T17:03:13;17.10;99.90
41922;DHT22;27609;51.002;5.354;2022-10-18T17:05:40;17.00;99.90
41922;DHT22;27609;51.002;5.354;2022-10-18T17:08:06;16.90;99.90
41922;DHT22;27609;51.002;5.354;2022-10-18T17:10:32;16.80;99.90
41922;DHT22;27609;51.002;5.354;2022-10-18T17:12:58;16.70;99.90
41922;DHT22;27609;51.002;5.354;2022-10-18T17:15:24;16.70;99.90
41922;DHT22;27609;51.002;5.354;2022-10-18T17:17:49;16.80;99.90
41922;DHT22;27609;51.002;5.354;2022-10-18T17:20:20;16.70;99.90
41922;DHT22;27609;51.002;5.354;2022-10-18T17:22:47;16.60;99.90
41922;DHT22;27609;51.002;5.354;2022-10-18T17:25:14;16.50;99.90
41922;DHT22;27609;51.002;5.354;2022-10-18T17:27:40;16.50;99.90
41922;DHT22;27609;51.002;5.354;2022-10-18T17:30:06;16.40;99.90
41922;DHT22;27609;51.002;5.354;2022-10-18T17:32:32;16.30;99.90
41922;DHT22;27609;51.002;5.354;2022-10-18T17:34:57;16.30;99.90
41922;DHT22;27609;51.002;5.354;2022-10-18T17:37:24;16.10;99.90
41922;DHT22;27609;51.002;5.354;2022-10-18T17:39:50;16.10;99.90
41922;DHT22;27609;51.002;5.354;2022-10-18T17:42:16;16.00;99.90
41922;DHT22;27609;51.002;5.354;2022-10-18T17:44:42;16.00;99.90
41922;DHT22;27609;51.002;5.354;2022-10-18T17:47:08;16.00;99.90
41922;DHT22;27609;51.002;5.354;2022-10-18T17:49:36;15.80;99.90
41922;DHT22;27609;51.002;5.354;2022-10-18T17:52:02;15.80;99.90
41922;DHT22;27609;51.002;5.354;2022-10-18T17:54:28;15.70;99.90
41922;DHT22;27609;51.002;5.354;2022-10-18T17:56:54;15.70;99.90
41922;DHT22;27609;51.002;5.354;2022-10-18T17:59:20;16.10;99.90
41922;DHT22;27609;51.002;5.354;2022-10-18T18:01:45;15.60;99.90
41922;DHT22;27609;51.002;5.354;2022-10-18T18:04:11;15.60;99.90
41922;DHT22;27609;51.002;5.354;2022-10-18T18:06:37;15.50;99.90
41922;DHT22;27609;51.002;5.354;2022-10-18T18:09:07;15.50;99.90
41922;DHT22;27609;51.002;5.354;2022-10-18T18:11:34;15.40;99.90
41922;DHT22;27609;51.002;5.354;2022-10-18T18:14:00;14.80;99.90
41922;DHT22;27609;51.002;5.354;2022-10-18T18:16:28;15.30;99.90
41922;DHT22;27609;51.002;5.354;2022-10-18T18:18:56;15.20;99.90
41922;DHT22;27609;51.002;5.354;2022-10-18T18:21:22;15.10;99.90
41922;DHT22;27609;51.002;5.354;2022-10-18T18:23:49;15.10;99.90
41922;DHT22;27609;51.002;5.354;2022-10-18T18:26:15;15.00;99.90
41922;DHT22;27609;51.002;5.354;2022-10-18T18:28:41;15.00;99.90
41922;DHT22;27609;51.002;5.354;2022-10-18T18:31:09;14.80;99.90